sensor_id;sensor_type;location;lat;lon;timestamp;temperature;humidity
7331;DHT22;3706;49.198;7.064;2024-02-21T00:00:09;7.00;99.90
7331;DHT22;3706;49.198;7.064;2024-02-21T00:02:37;7.00;99.90
7331;DHT22;3706;49.198;7.064;2024-02-21T00:05:04;7.00;99.90
7331;DHT22;3706;49.198;7.064;2024-02-21T00:07:31;7.00;99.90
7331;DHT22;3706;49.198;7.064;2024-02-21T00:10:00;7.00;99.90
7331;DHT22;3706;49.198;7.064;2024-02-21T00:12:27;6.90;99.90
7331;DHT22;3706;49.198;7.064;2024-02-21T00:14:54;7.00;99.90
7331;DHT22;3706;49.198;7.064;2024-02-21T00:17:21;6.90;99.90
7331;DHT22;3706;49.198;7.064;2024-02-21T00:19:48;6.90;99.90
7331;DHT22;3706;49.198;7.064;2024-02-21T00:22:15;6.90;99.90
7331;DHT22;3706;49.198;7.064;2024-02-21T00:24:42;6.80;99.90
7331;DHT22;3706;49.198;7.064;2024-02-21T00:27:10;6.80;99.90
7331;DHT22;3706;49.198;7.064;2024-02-21T00:29:37;6.70;99.90
7331;DHT22;3706;49.198;7.064;2024-02-21T00:32:05;6.60;99.90
7331;DHT22;3706;49.198;7.064;2024-02-21T00:34:32;6.60;99.90
7331;DHT22;3706;49.198;7.064;2024-02-21T00:36:59;6.70;99.90
7331;DHT22;3706;49.198;7.064;2024-02-21T00:39:26;6.60;99.90
7331;DHT22;3706;49.198;7.064;2024-02-21T00:41:53;6.60;99.90
7331;DHT22;3706;49.198;7.064;2024-02-21T00:44:21;6.60;99.90
7331;DHT22;3706;49.198;7.064;2024-02-21T00:46:48;6.60;99.90
7331;DHT22;3706;49.198;7.064;2024-02-21T00:49:15;6.60;99.90
7331;DHT22;3706;49.198;7.064;2024-02-21T00:51:42;6.50;99.90
7331;DHT22;3706;49.198;7.064;2024-02-21T00:54:09;6.60;99.90
7331;DHT22;3706;49.198;7.064;2024-02-21T00:56:36;6.60;99.90
7331;DHT22;3706;49.198;7.064;2024-02-21T00:59:03;6.70;99.90
7331;DHT22;3706;49.198;7.064;2024-02-21T01:01:31;6.70;99.90
7331;DHT22;3706;49.198;7.064;2024-02-21T01:03:58;6.70;99.90
7331;DHT22;3706;49.198;7.064;2024-02-21T01:06:25;6.70;99.90
7331;DHT22;3706;49.198;7.064;2024-02-21T01:08:52;6.60;99.90
7331;DHT22;3706;49.198;7.064;2024-02-21T01:11:19;6.60;99.90
7331;DHT22;3706;49.198;7.064;2024-02-21T01:13:46;6.60;99.90
7331;DHT22;3706;49.198;7.064;2024-02-21T01:16:13;6.60;99.90
7331;DHT22;3706;49.198;7.064;2024-02-21T01:18:42;6.60;99.90
7331;DHT22;3706;49.198;7.064;2024-02-21T01:21:09;6.60;99.90
7331;DHT22;3706;49.198;7.064;2024-02-21T01:23:36;6.60;99.90
7331;DHT22;3706;49.198;7.064;2024-02-21T01:26:04;6.50;99.90
7331;DHT22;3706;49.198;7.064;2024-02-21T01:28:34;6.50;99.90
7331;DHT22;3706;49.198;7.064;2024-02-21T01:31:01;6.50;99.90
7331;DHT22;3706;49.198;7.064;2024-02-21T01:33:28;6.40;99.90
7331;DHT22;3706;49.198;7.064;2024-02-21T01:36:01;6.40;99.90
7331;DHT22;3706;49.198;7.064;2024-02-21T01:38:29;6.40;99.90
7331;DHT22;3706;49.198;7.064;2024-02-21T01:40:57;6.40;99.90
7331;DHT22;3706;49.198;7.064;2024-02-21T01:43:24;6.40;99.90
7331;DHT22;3706;49.198;7.064;2024-02-21T01:45:53;6.50;99.90
7331;DHT22;3706;49.198;7.064;2024-02-21T01:48:21;6.50;99.90
7331;DHT22;3706;49.198;7.064;2024-02-21T01:50:49;6.50;99.90
7331;DHT22;3706;49.198;7.064;2024-02-21T01:53:19;6.60;99.90
7331;DHT22;3706;49.198;7.064;2024-02-21T01:55:48;6.50;99.90
7331;DHT22;3706;49.198;7.064;2024-02-21T01:58:16;6.60;99.90
7331;DHT22;3706;49.198;7.064;2024-02-21T02:00:44;6.60;99.90
7331;DHT22;3706;49.198;7.064;2024-02-21T02:03:11;6.70;99.90
7331;DHT22;3706;49.198;7.064;2024-02-21T02:05:43;6.60;99.90
7331;DHT22;3706;49.198;7.064;2024-02-21T02:08:10;6.70;99.90
7331;DHT22;3706;49.198;7.064;2024-02-21T02:10:39;6.70;99.90
7331;DHT22;3706;49.198;7.064;2024-02-21T02:13:07;6.60;99.90
7331;DHT22;3706;49.198;7.064;2024-02-21T02:15:41;6.60;99.90
7331;DHT22;3706;49.198;7.064;2024-02-21T02:18:08;6.50;99.90
7331;DHT22;3706;49.198;7.064;2024-02-21T02:20:36;6.60;99.90
7331;DHT22;3706;49.198;7.064;2024-02-21T02:23:07;6.40;99.90
7331;DHT22;3706;49.198;7.064;2024-02-21T02:25:36;6.40;99.90
7331;DHT22;3706;49.198;7.064;2024-02-21T02:28:04;6.20;99.90
7331;DHT22;3706;49.198;7.064;2024-02-21T02:30:32;6.10;99.90
7331;DHT22;3706;49.198;7.064;2024-02-21T02:33:01;5.90;99.90
7331;DHT22;3706;49.198;7.064;2024-02-21T02:35:29;5.80;99.90
7331;DHT22;3706;49.198;7.064;2024-02-21T02:37:56;5.60;99.90
7331;DHT22;3706;49.198;7.064;2024-02-21T02:40:23;5.60;99.90
7331;DHT22;3706;49.198;7.064;2024-02-21T02:42:51;5.60;99.90
7331;DHT22;3706;49.198;7.064;2024-02-21T02:45:21;5.50;99.90
7331;DHT22;3706;49.198;7.064;2024-02-21T02:47:49;5.40;99.90
7331;DHT22;3706;49.198;7.064;2024-02-21T02:50:17;5.40;99.90
7331;DHT22;3706;49.198;7.064;2024-02-21T02:52:44;5.30;99.90
7331;DHT22;3706;49.198;7.064;2024-02-21T02:55:11;5.30;99.90
7331;DHT22;3706;49.198;7.064;2024-02-21T02:57:37;5.30;99.90
7331;DHT22;3706;49.198;7.064;2024-02-21T03:00:06;5.20;99.90
7331;DHT22;3706;49.198;7.064;2024-02-21T03:02:34;5.20;99.90
7331;DHT22;3706;49.198;7.064;2024-02-21T03:05:01;5.30;99.90
7331;DHT22;3706;49.198;7.064;2024-02-21T03:07:37;5.20;99.90
7331;DHT22;3706;49.198;7.064;2024-02-21T03:10:05;5.40;99.90
7331;DHT22;3706;49.198;7.064;2024-02-21T03:12:33;5.40;99.90
7331;DHT22;3706;49.198;7.064;2024-02-21T03:15:00;5.60;99.90
7331;DHT22;3706;49.198;7.064;2024-02-21T03:17:28;5.50;99.90
7331;DHT22;3706;49.198;7.064;2024-02-21T03:19:55;5.60;99.90
7331;DHT22;3706;49.198;7.064;2024-02-21T03:22:22;5.70;99.90
7331;DHT22;3706;49.198;7.064;2024-02-21T03:24:49;5.80;99.90
7331;DHT22;3706;49.198;7.064;2024-02-21T03:27:16;5.80;99.90
7331;DHT22;3706;49.198;7.064;2024-02-21T03:29:43;5.90;99.90
7331;DHT22;3706;49.198;7.064;2024-02-21T03:32:11;5.90;99.90
7331;DHT22;3706;49.198;7.064;2024-02-21T03:34:39;5.90;99.90
7331;DHT22;3706;49.198;7.064;2024-02-21T03:37:06;6.10;99.90
7331;DHT22;3706;49.198;7.064;2024-02-21T03:39:33;6.20;99.90
7331;DHT22;3706;49.198;7.064;2024-02-21T03:42:00;6.20;99.90
7331;DHT22;3706;49.198;7.064;2024-02-21T03:44:30;6.30;99.90
7331;DHT22;3706;49.198;7.064;2024-02-21T03:46:57;6.20;99.90
7331;DHT22;3706;49.198;7.064;2024-02-21T03:49:24;6.30;99.90
7331;DHT22;3706;49.198;7.064;2024-02-21T03:51:52;6.20;99.90
7331;DHT22;3706;49.198;7.064;2024-02-21T03:54:20;6.10;99.90
7331;DHT22;3706;49.198;7.064;2024-02-21T03:56:47;6.10;99.90
7331;DHT22;3706;49.198;7.064;2024-02-21T03:59:14;6.10;99.90
7331;DHT22;3706;49.198;7.064;2024-02-21T04:01:41;6.00;99.90
7331;DHT22;3706;49.198;7.064;2024-02-21T04:04:10;6.00;99.90
7331;DHT22;3706;49.198;7.064;2024-02-21T04:06:38;6.00;99.90
7331;DHT22;3706;49.198;7.064;2024-02-21T04:09:14;6.00;99.90
7331;DHT22;3706;49.198;7.064;2024-02-21T04:11:41;6.00;99.90
7331;DHT22;3706;49.198;7.064;2024-02-21T04:14:08;6.00;99.90
7331;DHT22;3706;49.198;7.064;2024-02-21T04:16:37;6.00;99.90
7331;DHT22;3706;49.198;7.064;2024-02-21T04:19:04;6.00;99.90
7331;DHT22;3706;49.198;7.064;2024-02-21T04:21:31;6.00;99.90
7331;DHT22;3706;49.198;7.064;2024-02-21T04:23:58;6.00;99.90
7331;DHT22;3706;49.198;7.064;2024-02-21T04:26:28;6.00;99.90
7331;DHT22;3706;49.198;7.064;2024-02-21T04:28:55;6.10;99.90
7331;DHT22;3706;49.198;7.064;2024-02-21T04:31:22;6.10;99.90
7331;DHT22;3706;49.198;7.064;2024-02-21T04:33:50;6.00;99.90
7331;DHT22;3706;49.198;7.064;2024-02-21T04:36:17;6.10;99.90
7331;DHT22;3706;49.198;7.064;2024-02-21T04:38:44;6.10;99.90
7331;DHT22;3706;49.198;7.064;2024-02-21T04:41:11;6.10;99.90
7331;DHT22;3706;49.198;7.064;2024-02-21T04:43:40;6.10;99.90
7331;DHT22;3706;49.198;7.064;2024-02-21T04:46:07;6.10;99.90
7331;DHT22;3706;49.198;7.064;2024-02-21T04:48:35;6.00;99.90
7331;DHT22;3706;49.198;7.064;2024-02-21T04:51:02;6.10;99.90
7331;DHT22;3706;49.198;7.064;2024-02-21T04:53:29;6.00;99.90
7331;DHT22;3706;49.198;7.064;2024-02-21T04:55:56;6.00;99.90
7331;DHT22;3706;49.198;7.064;2024-02-21T04:58:23;6.00;99.90
7331;DHT22;3706;49.198;7.064;2024-02-21T05:00:52;5.90;99.90
7331;DHT22;3706;49.198;7.064;2024-02-21T05:03:20;5.90;99.90
7331;DHT22;3706;49.198;7.064;2024-02-21T05:05:47;5.90;99.90
7331;DHT22;3706;49.198;7.064;2024-02-21T05:08:14;5.90;99.90
7331;DHT22;3706;49.198;7.064;2024-02-21T05:10:41;5.80;99.90
7331;DHT22;3706;49.198;7.064;2024-02-21T05:13:09;5.90;99.90
7331;DHT22;3706;49.198;7.064;2024-02-21T05:15:35;5.90;99.90
7331;DHT22;3706;49.198;7.064;2024-02-21T05:18:04;6.00;99.90
7331;DHT22;3706;49.198;7.064;2024-02-21T05:20:31;6.00;99.90
7331;DHT22;3706;49.198;7.064;2024-02-21T05:22:58;6.10;99.90
7331;DHT22;3706;49.198;7.064;2024-02-21T05:25:25;6.00;99.90
7331;DHT22;3706;49.198;7.064;2024-02-21T05:27:52;6.00;99.90
7331;DHT22;3706;49.198;7.064;2024-02-21T05:30:27;6.00;99.90
7331;DHT22;3706;49.198;7.064;2024-02-21T05:32:54;6.10;99.90
7331;DHT22;3706;49.198;7.064;2024-02-21T05:35:26;6.00;99.90
7331;DHT22;3706;49.198;7.064;2024-02-21T05:37:54;5.90;99.90
7331;DHT22;3706;49.198;7.064;2024-02-21T05:40:21;6.00;99.90
7331;DHT22;3706;49.198;7.064;2024-02-21T05:42:48;5.90;99.90
7331;DHT22;3706;49.198;7.064;2024-02-21T05:45:16;6.00;99.90
7331;DHT22;3706;49.198;7.064;2024-02-21T05:47:44;5.90;99.90
7331;DHT22;3706;49.198;7.064;2024-02-21T05:50:11;5.80;99.90
7331;DHT22;3706;49.198;7.064;2024-02-21T05:52:39;5.70;99.90
7331;DHT22;3706;49.198;7.064;2024-02-21T05:55:07;5.60;99.90
7331;DHT22;3706;49.198;7.064;2024-02-21T05:57:34;5.70;99.90
7331;DHT22;3706;49.198;7.064;2024-02-21T06:00:04;5.70;99.90
7331;DHT22;3706;49.198;7.064;2024-02-21T06:02:31;5.70;99.90
7331;DHT22;3706;49.198;7.064;2024-02-21T06:04:59;5.70;99.90
7331;DHT22;3706;49.198;7.064;2024-02-21T06:07:26;5.70;99.90
7331;DHT22;3706;49.198;7.064;2024-02-21T06:09:54;5.70;99.90
7331;DHT22;3706;49.198;7.064;2024-02-21T06:12:21;5.80;99.90
7331;DHT22;3706;49.198;7.064;2024-02-21T06:14:48;5.90;99.90
7331;DHT22;3706;49.198;7.064;2024-02-21T06:17:15;5.90;99.90
7331;DHT22;3706;49.198;7.064;2024-02-21T06:19:43;6.00;99.90
7331;DHT22;3706;49.198;7.064;2024-02-21T06:22:10;6.00;99.90
7331;DHT22;3706;49.198;7.064;2024-02-21T06:24:37;6.00;99.90
7331;DHT22;3706;49.198;7.064;2024-02-21T06:27:06;5.90;99.90
7331;DHT22;3706;49.198;7.064;2024-02-21T06:29:34;5.90;99.90
7331;DHT22;3706;49.198;7.064;2024-02-21T06:32:01;5.80;99.90
7331;DHT22;3706;49.198;7.064;2024-02-21T06:34:28;5.70;99.90
7331;DHT22;3706;49.198;7.064;2024-02-21T06:36:55;5.60;99.90
7331;DHT22;3706;49.198;7.064;2024-02-21T06:39:22;5.60;99.90
7331;DHT22;3706;49.198;7.064;2024-02-21T06:41:50;5.50;99.90
7331;DHT22;3706;49.198;7.064;2024-02-21T06:44:20;5.40;99.90
7331;DHT22;3706;49.198;7.064;2024-02-21T06:46:48;5.40;99.90
7331;DHT22;3706;49.198;7.064;2024-02-21T06:49:14;5.50;99.90
7331;DHT22;3706;49.198;7.064;2024-02-21T06:51:42;5.60;99.90
7331;DHT22;3706;49.198;7.064;2024-02-21T06:54:12;5.60;99.90
7331;DHT22;3706;49.198;7.064;2024-02-21T06:56:40;5.70;99.90
7331;DHT22;3706;49.198;7.064;2024-02-21T06:59:07;5.90;99.90
7331;DHT22;3706;49.198;7.064;2024-02-21T07:01:36;5.80;99.90
7331;DHT22;3706;49.198;7.064;2024-02-21T07:04:03;5.90;99.90
7331;DHT22;3706;49.198;7.064;2024-02-21T07:06:30;5.90;99.90
7331;DHT22;3706;49.198;7.064;2024-02-21T07:08:57;5.90;99.90
7331;DHT22;3706;49.198;7.064;2024-02-21T07:11:24;5.80;99.90
7331;DHT22;3706;49.198;7.064;2024-02-21T07:13:52;5.80;99.90
7331;DHT22;3706;49.198;7.064;2024-02-21T07:16:20;5.80;99.90
7331;DHT22;3706;49.198;7.064;2024-02-21T07:18:48;5.80;99.90
7331;DHT22;3706;49.198;7.064;2024-02-21T07:21:15;5.80;99.90
7331;DHT22;3706;49.198;7.064;2024-02-21T07:23:42;5.80;99.90
7331;DHT22;3706;49.198;7.064;2024-02-21T07:26:10;5.70;99.90
7331;DHT22;3706;49.198;7.064;2024-02-21T07:28:40;5.80;99.90
7331;DHT22;3706;49.198;7.064;2024-02-21T07:31:07;5.80;99.90
7331;DHT22;3706;49.198;7.064;2024-02-21T07:33:42;5.80;99.90
7331;DHT22;3706;49.198;7.064;2024-02-21T07:36:29;5.90;99.90
7331;DHT22;3706;49.198;7.064;2024-02-21T07:39:13;6.00;99.90
7331;DHT22;3706;49.198;7.064;2024-02-21T07:41:51;6.00;99.90
7331;DHT22;3706;49.198;7.064;2024-02-21T07:44:42;6.10;99.90
7331;DHT22;3706;49.198;7.064;2024-02-21T07:47:19;6.10;99.90
7331;DHT22;3706;49.198;7.064;2024-02-21T07:49:50;6.20;99.90
7331;DHT22;3706;49.198;7.064;2024-02-21T07:52:53;6.40;99.90
7331;DHT22;3706;49.198;7.064;2024-02-21T07:55:24;6.40;99.90
7331;DHT22;3706;49.198;7.064;2024-02-21T07:57:58;6.50;99.90
7331;DHT22;3706;49.198;7.064;2024-02-21T08:00:29;6.60;99.90
7331;DHT22;3706;49.198;7.064;2024-02-21T08:03:00;6.70;99.90
7331;DHT22;3706;49.198;7.064;2024-02-21T08:05:37;6.70;99.90
7331;DHT22;3706;49.198;7.064;2024-02-21T08:08:23;6.70;99.90
7331;DHT22;3706;49.198;7.064;2024-02-21T08:11:05;6.80;99.90
7331;DHT22;3706;49.198;7.064;2024-02-21T08:16:30;6.90;99.90
7331;DHT22;3706;49.198;7.064;2024-02-21T08:18:57;7.00;99.90
7331;DHT22;3706;49.198;7.064;2024-02-21T08:21:25;7.10;99.90
7331;DHT22;3706;49.198;7.064;2024-02-21T08:23:54;7.20;99.90
7331;DHT22;3706;49.198;7.064;2024-02-21T08:26:21;7.30;99.90
7331;DHT22;3706;49.198;7.064;2024-02-21T08:28:55;7.50;99.90
7331;DHT22;3706;49.198;7.064;2024-02-21T08:31:26;7.70;99.90
7331;DHT22;3706;49.198;7.064;2024-02-21T08:33:57;8.00;99.90
7331;DHT22;3706;49.198;7.064;2024-02-21T08:36:34;8.20;99.90
7331;DHT22;3706;49.198;7.064;2024-02-21T08:39:54;8.40;99.90
7331;DHT22;3706;49.198;7.064;2024-02-21T08:42:38;8.70;99.90
7331;DHT22;3706;49.198;7.064;2024-02-21T08:45:34;8.90;99.90
7331;DHT22;3706;49.198;7.064;2024-02-21T08:48:12;9.10;99.90
7331;DHT22;3706;49.198;7.064;2024-02-21T08:50:50;9.10;99.90
7331;DHT22;3706;49.198;7.064;2024-02-21T08:53:36;9.10;99.90
7331;DHT22;3706;49.198;7.064;2024-02-21T08:56:09;9.20;99.90
7331;DHT22;3706;49.198;7.064;2024-02-21T08:58:41;9.20;99.90
7331;DHT22;3706;49.198;7.064;2024-02-21T09:01:34;9.20;99.90
7331;DHT22;3706;49.198;7.064;2024-02-21T09:04:35;9.10;99.90
7331;DHT22;3706;49.198;7.064;2024-02-21T09:07:32;9.10;99.90
7331;DHT22;3706;49.198;7.064;2024-02-21T09:10:00;9.20;99.90
7331;DHT22;3706;49.198;7.064;2024-02-21T09:12:41;9.20;99.90
7331;DHT22;3706;49.198;7.064;2024-02-21T09:15:22;9.30;99.90
7331;DHT22;3706;49.198;7.064;2024-02-21T09:18:15;9.40;99.90
7331;DHT22;3706;49.198;7.064;2024-02-21T09:21:08;9.50;99.90
7331;DHT22;3706;49.198;7.064;2024-02-21T09:23:58;9.60;99.90
7331;DHT22;3706;49.198;7.064;2024-02-21T09:26:45;9.60;99.90
7331;DHT22;3706;49.198;7.064;2024-02-21T09:29:39;9.50;99.90
7331;DHT22;3706;49.198;7.064;2024-02-21T09:32:07;9.40;99.90
7331;DHT22;3706;49.198;7.064;2024-02-21T09:34:46;9.40;99.90
7331;DHT22;3706;49.198;7.064;2024-02-21T09:37:20;9.50;99.90
7331;DHT22;3706;49.198;7.064;2024-02-21T09:39:51;9.60;99.90
7331;DHT22;3706;49.198;7.064;2024-02-21T09:45:32;9.80;99.90
7331;DHT22;3706;49.198;7.064;2024-02-21T09:48:32;10.00;99.90
7331;DHT22;3706;49.198;7.064;2024-02-21T09:51:07;10.10;99.90
7331;DHT22;3706;49.198;7.064;2024-02-21T09:53:42;10.10;99.90
7331;DHT22;3706;49.198;7.064;2024-02-21T09:56:22;10.00;99.90
7331;DHT22;3706;49.198;7.064;2024-02-21T09:59:04;10.10;99.90
7331;DHT22;3706;49.198;7.064;2024-02-21T10:01:35;10.00;99.90
7331;DHT22;3706;49.198;7.064;2024-02-21T10:04:04;10.10;99.90
7331;DHT22;3706;49.198;7.064;2024-02-21T10:06:32;10.10;99.90
7331;DHT22;3706;49.198;7.064;2024-02-21T10:09:02;10.20;99.90
7331;DHT22;3706;49.198;7.064;2024-02-21T10:11:36;10.30;99.90
7331;DHT22;3706;49.198;7.064;2024-02-21T10:14:14;10.30;99.90
7331;DHT22;3706;49.198;7.064;2024-02-21T10:16:59;10.30;99.90
7331;DHT22;3706;49.198;7.064;2024-02-21T10:19:27;10.40;99.90
7331;DHT22;3706;49.198;7.064;2024-02-21T10:22:12;10.30;99.90
7331;DHT22;3706;49.198;7.064;2024-02-21T10:24:46;10.20;99.90
7331;DHT22;3706;49.198;7.064;2024-02-21T10:27:34;10.20;99.90
7331;DHT22;3706;49.198;7.064;2024-02-21T10:30:23;10.20;99.90
7331;DHT22;3706;49.198;7.064;2024-02-21T10:39:06;10.40;99.90
7331;DHT22;3706;49.198;7.064;2024-02-21T10:41:50;10.50;99.90
7331;DHT22;3706;49.198;7.064;2024-02-21T10:44:52;10.50;99.90
7331;DHT22;3706;49.198;7.064;2024-02-21T10:47:24;10.40;99.90
7331;DHT22;3706;49.198;7.064;2024-02-21T10:50:08;10.40;99.90
7331;DHT22;3706;49.198;7.064;2024-02-21T10:53:05;10.40;99.90
7331;DHT22;3706;49.198;7.064;2024-02-21T10:55:38;10.40;99.90
7331;DHT22;3706;49.198;7.064;2024-02-21T10:58:21;10.40;99.90
7331;DHT22;3706;49.198;7.064;2024-02-21T11:00:49;10.40;99.90
7331;DHT22;3706;49.198;7.064;2024-02-21T11:03:16;10.50;99.90
7331;DHT22;3706;49.198;7.064;2024-02-21T11:09:03;10.70;99.90
7331;DHT22;3706;49.198;7.064;2024-02-21T11:11:33;10.80;99.90
7331;DHT22;3706;49.198;7.064;2024-02-21T11:14:17;10.80;99.90
7331;DHT22;3706;49.198;7.064;2024-02-21T11:16:45;10.80;99.90
7331;DHT22;3706;49.198;7.064;2024-02-21T11:19:20;10.80;99.90
7331;DHT22;3706;49.198;7.064;2024-02-21T11:21:47;10.80;99.90
7331;DHT22;3706;49.198;7.064;2024-02-21T11:24:26;10.70;99.90
7331;DHT22;3706;49.198;7.064;2024-02-21T11:26:53;10.70;99.90
7331;DHT22;3706;49.198;7.064;2024-02-21T11:29:23;10.70;99.90
7331;DHT22;3706;49.198;7.064;2024-02-21T11:31:50;10.80;99.90
7331;DHT22;3706;49.198;7.064;2024-02-21T11:34:18;11.00;99.90
7331;DHT22;3706;49.198;7.064;2024-02-21T11:36:49;11.10;99.90
7331;DHT22;3706;49.198;7.064;2024-02-21T11:39:25;11.10;99.90
7331;DHT22;3706;49.198;7.064;2024-02-21T11:42:03;11.10;99.90
7331;DHT22;3706;49.198;7.064;2024-02-21T11:44:37;11.20;99.90
7331;DHT22;3706;49.198;7.064;2024-02-21T11:47:06;11.30;99.90
7331;DHT22;3706;49.198;7.064;2024-02-21T11:49:46;11.30;99.90
7331;DHT22;3706;49.198;7.064;2024-02-21T11:52:15;11.30;99.90
7331;DHT22;3706;49.198;7.064;2024-02-21T11:54:45;11.20;99.90
7331;DHT22;3706;49.198;7.064;2024-02-21T11:57:15;11.10;99.90
7331;DHT22;3706;49.198;7.064;2024-02-21T11:59:44;11.00;99.90
7331;DHT22;3706;49.198;7.064;2024-02-21T12:02:12;11.10;99.90
7331;DHT22;3706;49.198;7.064;2024-02-21T12:04:42;11.20;99.90
7331;DHT22;3706;49.198;7.064;2024-02-21T12:07:14;11.40;99.90
7331;DHT22;3706;49.198;7.064;2024-02-21T12:09:52;11.40;99.90
7331;DHT22;3706;49.198;7.064;2024-02-21T12:15:47;11.30;99.90
7331;DHT22;3706;49.198;7.064;2024-02-21T12:18:18;11.30;99.90
7331;DHT22;3706;49.198;7.064;2024-02-21T12:20:48;11.40;99.90
7331;DHT22;3706;49.198;7.064;2024-02-21T12:23:15;11.50;99.90
7331;DHT22;3706;49.198;7.064;2024-02-21T12:25:46;11.50;99.90
7331;DHT22;3706;49.198;7.064;2024-02-21T12:28:20;11.50;99.90
7331;DHT22;3706;49.198;7.064;2024-02-21T12:30:47;11.40;99.90
7331;DHT22;3706;49.198;7.064;2024-02-21T12:33:14;11.40;99.90
7331;DHT22;3706;49.198;7.064;2024-02-21T12:36:22;11.30;99.90
7331;DHT22;3706;49.198;7.064;2024-02-21T12:38:40;11.30;99.90
7331;DHT22;3706;49.198;7.064;2024-02-21T12:41:10;11.20;99.90
7331;DHT22;3706;49.198;7.064;2024-02-21T12:43:58;11.10;99.90
7331;DHT22;3706;49.198;7.064;2024-02-21T12:46:49;11.00;99.90
7331;DHT22;3706;49.198;7.064;2024-02-21T12:49:19;10.90;99.90
7331;DHT22;3706;49.198;7.064;2024-02-21T12:51:50;11.00;99.90
7331;DHT22;3706;49.198;7.064;2024-02-21T12:54:30;11.00;99.90
7331;DHT22;3706;49.198;7.064;2024-02-21T12:56:59;11.10;99.90
7331;DHT22;3706;49.198;7.064;2024-02-21T12:59:28;11.10;99.90
7331;DHT22;3706;49.198;7.064;2024-02-21T13:01:55;11.10;99.90
7331;DHT22;3706;49.198;7.064;2024-02-21T13:04:22;11.30;99.90
7331;DHT22;3706;49.198;7.064;2024-02-21T13:07:10;11.40;99.90
7331;DHT22;3706;49.198;7.064;2024-02-21T13:10:09;11.40;99.90
7331;DHT22;3706;49.198;7.064;2024-02-21T13:13:00;11.60;99.90
7331;DHT22;3706;49.198;7.064;2024-02-21T13:15:28;11.80;99.90
7331;DHT22;3706;49.198;7.064;2024-02-21T13:17:55;11.80;99.90
7331;DHT22;3706;49.198;7.064;2024-02-21T13:20:42;11.90;99.90
7331;DHT22;3706;49.198;7.064;2024-02-21T13:23:17;11.90;99.90
7331;DHT22;3706;49.198;7.064;2024-02-21T13:25:47;11.90;99.90
7331;DHT22;3706;49.198;7.064;2024-02-21T13:28:16;11.80;99.90
7331;DHT22;3706;49.198;7.064;2024-02-21T13:31:03;11.80;99.90
7331;DHT22;3706;49.198;7.064;2024-02-21T13:33:36;11.80;99.90
7331;DHT22;3706;49.198;7.064;2024-02-21T13:36:18;11.80;99.90
7331;DHT22;3706;49.198;7.064;2024-02-21T13:38:49;11.90;99.90
7331;DHT22;3706;49.198;7.064;2024-02-21T13:41:17;12.00;99.90
7331;DHT22;3706;49.198;7.064;2024-02-21T13:43:48;12.00;99.90
7331;DHT22;3706;49.198;7.064;2024-02-21T13:46:15;12.00;99.90
7331;DHT22;3706;49.198;7.064;2024-02-21T13:48:45;12.00;99.90
7331;DHT22;3706;49.198;7.064;2024-02-21T13:51:12;11.80;99.90
7331;DHT22;3706;49.198;7.064;2024-02-21T13:53:42;11.70;99.90
7331;DHT22;3706;49.198;7.064;2024-02-21T13:56:10;11.60;99.90
7331;DHT22;3706;49.198;7.064;2024-02-21T13:58:37;11.60;99.90
7331;DHT22;3706;49.198;7.064;2024-02-21T14:01:05;11.50;99.90
7331;DHT22;3706;49.198;7.064;2024-02-21T14:03:34;11.50;99.90
7331;DHT22;3706;49.198;7.064;2024-02-21T14:06:03;11.50;99.90
7331;DHT22;3706;49.198;7.064;2024-02-21T14:08:31;11.50;99.90
7331;DHT22;3706;49.198;7.064;2024-02-21T14:11:00;11.50;99.90
7331;DHT22;3706;49.198;7.064;2024-02-21T14:13:31;11.40;99.90
7331;DHT22;3706;49.198;7.064;2024-02-21T14:15:58;11.50;99.90
7331;DHT22;3706;49.198;7.064;2024-02-21T14:18:26;11.50;99.90
7331;DHT22;3706;49.198;7.064;2024-02-21T14:21:02;11.50;99.90
7331;DHT22;3706;49.198;7.064;2024-02-21T14:23:29;11.50;99.90
7331;DHT22;3706;49.198;7.064;2024-02-21T14:25:56;11.50;99.90
7331;DHT22;3706;49.198;7.064;2024-02-21T14:28:23;11.50;99.90
7331;DHT22;3706;49.198;7.064;2024-02-21T14:30:50;11.50;99.90
7331;DHT22;3706;49.198;7.064;2024-02-21T14:33:19;11.50;99.90
7331;DHT22;3706;49.198;7.064;2024-02-21T14:35:47;11.50;99.90
7331;DHT22;3706;49.198;7.064;2024-02-21T14:38:14;11.50;99.90
7331;DHT22;3706;49.198;7.064;2024-02-21T14:40:42;11.50;99.90
7331;DHT22;3706;49.198;7.064;2024-02-21T14:43:09;11.30;99.90
7331;DHT22;3706;49.198;7.064;2024-02-21T14:45:37;11.20;99.90
7331;DHT22;3706;49.198;7.064;2024-02-21T14:48:06;11.20;99.90
7331;DHT22;3706;49.198;7.064;2024-02-21T14:50:33;11.10;99.90
7331;DHT22;3706;49.198;7.064;2024-02-21T14:53:01;11.00;99.90
7331;DHT22;3706;49.198;7.064;2024-02-21T14:55:29;11.00;99.90
7331;DHT22;3706;49.198;7.064;2024-02-21T14:57:56;10.90;99.90
7331;DHT22;3706;49.198;7.064;2024-02-21T15:00:24;10.80;99.90
7331;DHT22;3706;49.198;7.064;2024-02-21T15:02:55;10.80;99.90
7331;DHT22;3706;49.198;7.064;2024-02-21T15:05:23;10.80;99.90
7331;DHT22;3706;49.198;7.064;2024-02-21T15:07:50;10.80;99.90
7331;DHT22;3706;49.198;7.064;2024-02-21T15:10:19;10.80;99.90
7331;DHT22;3706;49.198;7.064;2024-02-21T15:12:46;10.80;99.90
7331;DHT22;3706;49.198;7.064;2024-02-21T15:15:13;10.90;99.90
7331;DHT22;3706;49.198;7.064;2024-02-21T15:17:40;10.80;99.90
7331;DHT22;3706;49.198;7.064;2024-02-21T15:20:08;10.80;99.90
7331;DHT22;3706;49.198;7.064;2024-02-21T15:22:36;10.80;99.90
7331;DHT22;3706;49.198;7.064;2024-02-21T15:25:04;10.80;99.90
7331;DHT22;3706;49.198;7.064;2024-02-21T15:27:33;10.80;99.90
7331;DHT22;3706;49.198;7.064;2024-02-21T15:29:59;10.80;99.90
7331;DHT22;3706;49.198;7.064;2024-02-21T15:32:28;10.80;99.90
7331;DHT22;3706;49.198;7.064;2024-02-21T15:34:55;10.80;99.90
7331;DHT22;3706;49.198;7.064;2024-02-21T15:37:22;10.80;99.90
7331;DHT22;3706;49.198;7.064;2024-02-21T15:39:50;10.80;99.90
7331;DHT22;3706;49.198;7.064;2024-02-21T15:42:18;10.80;99.90
7331;DHT22;3706;49.198;7.064;2024-02-21T15:44:47;10.70;99.90
7331;DHT22;3706;49.198;7.064;2024-02-21T15:47:14;10.70;99.90
7331;DHT22;3706;49.198;7.064;2024-02-21T15:49:44;10.70;99.90
7331;DHT22;3706;49.198;7.064;2024-02-21T15:52:14;10.60;99.90
7331;DHT22;3706;49.198;7.064;2024-02-21T15:54:44;10.60;99.90
7331;DHT22;3706;49.198;7.064;2024-02-21T15:57:15;10.60;99.90
7331;DHT22;3706;49.198;7.064;2024-02-21T15:59:42;10.60;99.90
7331;DHT22;3706;49.198;7.064;2024-02-21T16:02:11;10.50;99.90
7331;DHT22;3706;49.198;7.064;2024-02-21T16:04:41;10.50;99.90
7331;DHT22;3706;49.198;7.064;2024-02-21T16:07:09;10.50;99.90
7331;DHT22;3706;49.198;7.064;2024-02-21T16:09:36;10.40;99.90
7331;DHT22;3706;49.198;7.064;2024-02-21T16:12:04;10.40;99.90
7331;DHT22;3706;49.198;7.064;2024-02-21T16:14:34;10.30;99.90
7331;DHT22;3706;49.198;7.064;2024-02-21T16:17:01;10.30;99.90
7331;DHT22;3706;49.198;7.064;2024-02-21T16:19:29;10.30;99.90
7331;DHT22;3706;49.198;7.064;2024-02-21T16:21:57;10.20;99.90
7331;DHT22;3706;49.198;7.064;2024-02-21T16:24:25;10.20;99.90
7331;DHT22;3706;49.198;7.064;2024-02-21T16:26:52;10.10;99.90
7331;DHT22;3706;49.198;7.064;2024-02-21T16:29:19;10.10;99.90
7331;DHT22;3706;49.198;7.064;2024-02-21T16:31:48;10.10;99.90
7331;DHT22;3706;49.198;7.064;2024-02-21T16:34:16;10.00;99.90
7331;DHT22;3706;49.198;7.064;2024-02-21T16:36:45;10.00;99.90
7331;DHT22;3706;49.198;7.064;2024-02-21T16:39:12;9.90;99.90
7331;DHT22;3706;49.198;7.064;2024-02-21T16:41:38;9.90;99.90
7331;DHT22;3706;49.198;7.064;2024-02-21T16:44:05;9.80;99.90
7331;DHT22;3706;49.198;7.064;2024-02-21T16:46:33;9.80;99.90
7331;DHT22;3706;49.198;7.064;2024-02-21T16:49:01;9.70;99.90
7331;DHT22;3706;49.198;7.064;2024-02-21T16:51:28;9.70;99.90
7331;DHT22;3706;49.198;7.064;2024-02-21T16:53:57;9.70;99.90